sensor_id;sensor_type;location;lat;lon;timestamp;P1;durP1;ratioP1;P2;durP2;ratioP2
45338;SDS011;31071;51.478;5.710;2023-03-02T00:00:44;12.52;;;8.20;;
45338;SDS011;31071;51.478;5.710;2023-03-02T00:03:11;13.98;;;7.90;;
45338;SDS011;31071;51.478;5.710;2023-03-02T00:05:38;15.40;;;8.35;;
45338;SDS011;31071;51.478;5.710;2023-03-02T00:08:06;12.15;;;7.72;;
45338;SDS011;31071;51.478;5.710;2023-03-02T00:10:34;12.75;;;8.02;;
45338;SDS011;31071;51.478;5.710;2023-03-02T00:13:00;13.10;;;8.00;;
45338;SDS011;31071;51.478;5.710;2023-03-02T00:15:27;12.63;;;7.97;;
45338;SDS011;31071;51.478;5.710;2023-03-02T00:17:53;12.80;;;7.82;;
45338;SDS011;31071;51.478;5.710;2023-03-02T00:20:18;12.23;;;7.95;;
45338;SDS011;31071;51.478;5.710;2023-03-02T00:22:44;11.40;;;7.68;;
45338;SDS011;31071;51.478;5.710;2023-03-02T00:25:11;13.20;;;7.93;;
45338;SDS011;31071;51.478;5.710;2023-03-02T00:27:37;14.10;;;7.75;;
45338;SDS011;31071;51.478;5.710;2023-03-02T00:30:03;12.65;;;7.85;;
45338;SDS011;31071;51.478;5.710;2023-03-02T00:32:29;13.10;;;7.68;;
45338;SDS011;31071;51.478;5.710;2023-03-02T00:34:55;14.82;;;7.45;;
45338;SDS011;31071;51.478;5.710;2023-03-02T00:37:22;10.68;;;7.35;;
45338;SDS011;31071;51.478;5.710;2023-03-02T00:39:50;11.50;;;7.35;;
45338;SDS011;31071;51.478;5.710;2023-03-02T00:42:16;10.95;;;7.00;;
45338;SDS011;31071;51.478;5.710;2023-03-02T00:44:41;12.77;;;7.45;;
45338;SDS011;31071;51.478;5.710;2023-03-02T00:47:07;13.50;;;7.75;;
45338;SDS011;31071;51.478;5.710;2023-03-02T00:49:32;13.77;;;7.50;;
45338;SDS011;31071;51.478;5.710;2023-03-02T00:51:58;12.70;;;7.80;;
45338;SDS011;31071;51.478;5.710;2023-03-02T00:54:25;14.10;;;7.50;;
45338;SDS011;31071;51.478;5.710;2023-03-02T00:56:50;12.23;;;7.38;;
45338;SDS011;31071;51.478;5.710;2023-03-02T00:59:16;13.88;;;7.57;;
45338;SDS011;31071;51.478;5.710;2023-03-02T01:01:51;12.52;;;7.15;;
45338;SDS011;31071;51.478;5.710;2023-03-02T01:04:24;13.85;;;7.18;;
45338;SDS011;31071;51.478;5.710;2023-03-02T01:06:55;14.90;;;7.47;;
45338;SDS011;31071;51.478;5.710;2023-03-02T01:09:21;10.77;;;6.78;;
45338;SDS011;31071;51.478;5.710;2023-03-02T01:11:47;13.57;;;7.75;;
45338;SDS011;31071;51.478;5.710;2023-03-02T01:14:13;12.27;;;7.30;;
45338;SDS011;31071;51.478;5.710;2023-03-02T01:16:39;14.30;;;7.45;;
45338;SDS011;31071;51.478;5.710;2023-03-02T01:19:05;13.95;;;7.60;;
45338;SDS011;31071;51.478;5.710;2023-03-02T01:21:31;13.40;;;7.90;;
45338;SDS011;31071;51.478;5.710;2023-03-02T01:23:57;11.65;;;7.22;;
45338;SDS011;31071;51.478;5.710;2023-03-02T01:26:22;10.75;;;6.72;;
45338;SDS011;31071;51.478;5.710;2023-03-02T01:28:48;11.95;;;7.22;;
45338;SDS011;31071;51.478;5.710;2023-03-02T01:31:14;12.15;;;7.53;;
45338;SDS011;31071;51.478;5.710;2023-03-02T01:33:40;13.68;;;8.07;;
45338;SDS011;31071;51.478;5.710;2023-03-02T01:36:05;12.48;;;7.68;;
45338;SDS011;31071;51.478;5.710;2023-03-02T01:38:31;12.32;;;7.40;;
45338;SDS011;31071;51.478;5.710;2023-03-02T01:40:57;12.63;;;7.47;;
45338;SDS011;31071;51.478;5.710;2023-03-02T01:43:22;13.98;;;7.63;;
45338;SDS011;31071;51.478;5.710;2023-03-02T01:45:52;12.02;;;7.60;;
45338;SDS011;31071;51.478;5.710;2023-03-02T01:48:25;12.85;;;7.88;;
45338;SDS011;31071;51.478;5.710;2023-03-02T01:51:09;11.52;;;7.68;;
45338;SDS011;31071;51.478;5.710;2023-03-02T01:53:38;10.63;;;7.30;;
45338;SDS011;31071;51.478;5.710;2023-03-02T01:56:10;12.68;;;7.32;;
45338;SDS011;31071;51.478;5.710;2023-03-02T01:58:47;12.20;;;7.82;;
45338;SDS011;31071;51.478;5.710;2023-03-02T02:01:16;13.88;;;7.85;;
45338;SDS011;31071;51.478;5.710;2023-03-02T02:03:42;12.38;;;7.38;;
45338;SDS011;31071;51.478;5.710;2023-03-02T02:06:14;12.90;;;7.18;;
45338;SDS011;31071;51.478;5.710;2023-03-02T02:08:41;16.50;;;6.82;;
45338;SDS011;31071;51.478;5.710;2023-03-02T02:11:08;11.02;;;7.60;;
45338;SDS011;31071;51.478;5.710;2023-03-02T02:13:34;14.63;;;7.15;;
45338;SDS011;31071;51.478;5.710;2023-03-02T02:15:59;11.43;;;6.75;;
45338;SDS011;31071;51.478;5.710;2023-03-02T02:18:25;13.73;;;7.25;;
45338;SDS011;31071;51.478;5.710;2023-03-02T02:20:51;11.57;;;7.47;;
45338;SDS011;31071;51.478;5.710;2023-03-02T02:23:26;12.85;;;7.50;;
45338;SDS011;31071;51.478;5.710;2023-03-02T02:26:02;12.88;;;7.57;;
45338;SDS011;31071;51.478;5.710;2023-03-02T02:34:02;14.63;;;7.30;;
45338;SDS011;31071;51.478;5.710;2023-03-02T02:36:42;14.05;;;8.48;;
45338;SDS011;31071;51.478;5.710;2023-03-02T02:39:13;10.95;;;7.63;;
45338;SDS011;31071;51.478;5.710;2023-03-02T02:41:43;14.98;;;8.63;;
45338;SDS011;31071;51.478;5.710;2023-03-02T02:44:13;12.07;;;8.18;;
45338;SDS011;31071;51.478;5.710;2023-03-02T02:46:40;12.32;;;7.50;;
45338;SDS011;31071;51.478;5.710;2023-03-02T02:49:20;14.40;;;8.63;;
45338;SDS011;31071;51.478;5.710;2023-03-02T02:52:02;13.75;;;7.95;;
45338;SDS011;31071;51.478;5.710;2023-03-02T02:54:30;12.05;;;7.68;;
45338;SDS011;31071;51.478;5.710;2023-03-02T02:56:57;13.40;;;8.35;;
45338;SDS011;31071;51.478;5.710;2023-03-02T02:59:26;15.18;;;8.95;;
45338;SDS011;31071;51.478;5.710;2023-03-02T03:01:55;13.55;;;9.10;;
45338;SDS011;31071;51.478;5.710;2023-03-02T03:04:25;13.93;;;8.70;;
45338;SDS011;31071;51.478;5.710;2023-03-02T03:06:55;15.10;;;9.00;;
45338;SDS011;31071;51.478;5.710;2023-03-02T03:09:23;18.13;;;10.13;;
45338;SDS011;31071;51.478;5.710;2023-03-02T03:11:55;16.10;;;9.32;;
45338;SDS011;31071;51.478;5.710;2023-03-02T03:14:28;17.58;;;9.93;;
45338;SDS011;31071;51.478;5.710;2023-03-02T03:16:59;16.75;;;9.93;;
45338;SDS011;31071;51.478;5.710;2023-03-02T03:19:26;18.23;;;10.02;;
45338;SDS011;31071;51.478;5.710;2023-03-02T03:21:55;17.23;;;10.85;;
45338;SDS011;31071;51.478;5.710;2023-03-02T03:24:23;18.05;;;10.82;;
45338;SDS011;31071;51.478;5.710;2023-03-02T03:26:49;19.85;;;11.30;;
45338;SDS011;31071;51.478;5.710;2023-03-02T03:29:15;19.42;;;11.23;;
45338;SDS011;31071;51.478;5.710;2023-03-02T03:31:41;21.40;;;11.52;;
45338;SDS011;31071;51.478;5.710;2023-03-02T03:34:07;19.15;;;11.18;;
45338;SDS011;31071;51.478;5.710;2023-03-02T03:36:33;19.52;;;11.85;;
45338;SDS011;31071;51.478;5.710;2023-03-02T03:38:59;19.70;;;11.50;;
45338;SDS011;31071;51.478;5.710;2023-03-02T03:41:26;22.30;;;12.93;;
45338;SDS011;31071;51.478;5.710;2023-03-02T03:43:51;22.15;;;12.68;;
45338;SDS011;31071;51.478;5.710;2023-03-02T03:46:17;21.08;;;13.00;;
45338;SDS011;31071;51.478;5.710;2023-03-02T03:48:43;28.77;;;13.63;;
45338;SDS011;31071;51.478;5.710;2023-03-02T03:51:09;24.40;;;13.95;;
45338;SDS011;31071;51.478;5.710;2023-03-02T03:53:35;25.20;;;13.45;;
45338;SDS011;31071;51.478;5.710;2023-03-02T03:56:00;25.02;;;13.68;;
45338;SDS011;31071;51.478;5.710;2023-03-02T03:58:28;27.70;;;14.93;;
45338;SDS011;31071;51.478;5.710;2023-03-02T04:00:54;27.15;;;14.70;;
45338;SDS011;31071;51.478;5.710;2023-03-02T04:03:20;26.17;;;14.88;;
45338;SDS011;31071;51.478;5.710;2023-03-02T04:05:46;27.92;;;15.32;;
45338;SDS011;31071;51.478;5.710;2023-03-02T04:08:12;25.70;;;14.90;;
45338;SDS011;31071;51.478;5.710;2023-03-02T04:10:38;26.33;;;15.55;;
45338;SDS011;31071;51.478;5.710;2023-03-02T04:13:05;29.13;;;16.08;;
45338;SDS011;31071;51.478;5.710;2023-03-02T04:15:30;29.95;;;16.38;;
45338;SDS011;31071;51.478;5.710;2023-03-02T04:17:56;34.75;;;17.40;;
45338;SDS011;31071;51.478;5.710;2023-03-02T04:20:22;30.90;;;17.05;;
45338;SDS011;31071;51.478;5.710;2023-03-02T04:22:50;30.55;;;16.38;;
45338;SDS011;31071;51.478;5.710;2023-03-02T04:25:18;32.67;;;17.95;;
45338;SDS011;31071;51.478;5.710;2023-03-02T04:27:49;31.80;;;17.38;;
45338;SDS011;31071;51.478;5.710;2023-03-02T04:30:19;31.30;;;16.35;;
45338;SDS011;31071;51.478;5.710;2023-03-02T04:32:47;30.67;;;16.13;;
45338;SDS011;31071;51.478;5.710;2023-03-02T04:35:13;31.08;;;16.88;;
45338;SDS011;31071;51.478;5.710;2023-03-02T04:37:40;33.25;;;17.02;;
45338;SDS011;31071;51.478;5.710;2023-03-02T04:40:07;33.53;;;17.38;;
45338;SDS011;31071;51.478;5.710;2023-03-02T04:42:34;33.00;;;17.73;;
45338;SDS011;31071;51.478;5.710;2023-03-02T04:44:59;30.92;;;16.45;;
45338;SDS011;31071;51.478;5.710;2023-03-02T04:47:25;32.80;;;16.95;;
45338;SDS011;31071;51.478;5.710;2023-03-02T04:49:51;27.80;;;15.23;;
45338;SDS011;31071;51.478;5.710;2023-03-02T04:52:19;30.90;;;16.40;;
45338;SDS011;31071;51.478;5.710;2023-03-02T04:54:45;32.72;;;16.52;;
45338;SDS011;31071;51.478;5.710;2023-03-02T04:57:11;32.65;;;16.85;;
45338;SDS011;31071;51.478;5.710;2023-03-02T04:59:36;37.40;;;17.75;;
45338;SDS011;31071;51.478;5.710;2023-03-02T05:02:02;35.42;;;18.23;;
45338;SDS011;31071;51.478;5.710;2023-03-02T05:04:29;34.95;;;18.80;;
45338;SDS011;31071;51.478;5.710;2023-03-02T05:06:55;33.38;;;18.38;;
45338;SDS011;31071;51.478;5.710;2023-03-02T05:09:20;40.22;;;20.02;;
45338;SDS011;31071;51.478;5.710;2023-03-02T05:11:53;42.63;;;20.33;;
45338;SDS011;31071;51.478;5.710;2023-03-02T05:14:19;42.88;;;20.42;;
45338;SDS011;31071;51.478;5.710;2023-03-02T05:16:45;41.95;;;20.92;;
45338;SDS011;31071;51.478;5.710;2023-03-02T05:19:11;42.17;;;21.00;;
45338;SDS011;31071;51.478;5.710;2023-03-02T05:21:36;38.67;;;21.27;;
45338;SDS011;31071;51.478;5.710;2023-03-02T05:24:02;44.63;;;22.58;;
45338;SDS011;31071;51.478;5.710;2023-03-02T05:26:28;42.05;;;21.90;;
45338;SDS011;31071;51.478;5.710;2023-03-02T05:28:54;45.42;;;21.60;;
45338;SDS011;31071;51.478;5.710;2023-03-02T05:31:20;47.28;;;22.48;;
45338;SDS011;31071;51.478;5.710;2023-03-02T05:33:48;50.92;;;23.23;;
45338;SDS011;31071;51.478;5.710;2023-03-02T05:36:14;49.28;;;23.75;;
45338;SDS011;31071;51.478;5.710;2023-03-02T05:38:40;48.70;;;23.95;;
45338;SDS011;31071;51.478;5.710;2023-03-02T05:41:05;48.40;;;23.60;;
45338;SDS011;31071;51.478;5.710;2023-03-02T05:43:31;51.38;;;23.95;;
45338;SDS011;31071;51.478;5.710;2023-03-02T05:45:56;52.85;;;25.23;;
45338;SDS011;31071;51.478;5.710;2023-03-02T05:48:28;47.42;;;23.40;;
45338;SDS011;31071;51.478;5.710;2023-03-02T05:50:54;50.25;;;24.40;;
45338;SDS011;31071;51.478;5.710;2023-03-02T05:53:20;50.28;;;24.08;;
45338;SDS011;31071;51.478;5.710;2023-03-02T05:55:45;52.72;;;24.58;;
45338;SDS011;31071;51.478;5.710;2023-03-02T05:58:12;52.67;;;25.33;;
45338;SDS011;31071;51.478;5.710;2023-03-02T06:00:40;46.95;;;23.45;;
45338;SDS011;31071;51.478;5.710;2023-03-02T06:03:06;56.60;;;26.73;;
45338;SDS011;31071;51.478;5.710;2023-03-02T06:05:33;54.00;;;25.58;;
45338;SDS011;31071;51.478;5.710;2023-03-02T06:07:59;57.58;;;27.50;;
45338;SDS011;31071;51.478;5.710;2023-03-02T06:10:24;55.20;;;26.73;;
45338;SDS011;31071;51.478;5.710;2023-03-02T06:12:50;53.53;;;25.75;;
45338;SDS011;31071;51.478;5.710;2023-03-02T06:15:16;56.65;;;27.38;;
45338;SDS011;31071;51.478;5.710;2023-03-02T06:17:42;58.72;;;28.38;;
45338;SDS011;31071;51.478;5.710;2023-03-02T06:20:07;57.70;;;27.83;;
45338;SDS011;31071;51.478;5.710;2023-03-02T06:22:38;62.55;;;28.67;;
45338;SDS011;31071;51.478;5.710;2023-03-02T06:25:07;72.72;;;30.77;;
45338;SDS011;31071;51.478;5.710;2023-03-02T06:27:34;59.50;;;27.35;;
45338;SDS011;31071;51.478;5.710;2023-03-02T06:30:01;62.42;;;28.05;;
45338;SDS011;31071;51.478;5.710;2023-03-02T06:32:26;61.15;;;27.40;;
45338;SDS011;31071;51.478;5.710;2023-03-02T06:34:57;61.28;;;28.42;;
45338;SDS011;31071;51.478;5.710;2023-03-02T06:37:24;58.75;;;27.40;;
45338;SDS011;31071;51.478;5.710;2023-03-02T06:39:51;63.60;;;29.02;;
45338;SDS011;31071;51.478;5.710;2023-03-02T06:42:19;59.50;;;26.88;;
45338;SDS011;31071;51.478;5.710;2023-03-02T06:44:45;64.10;;;27.55;;
45338;SDS011;31071;51.478;5.710;2023-03-02T06:47:11;61.67;;;28.58;;
45338;SDS011;31071;51.478;5.710;2023-03-02T06:49:37;62.67;;;27.98;;
45338;SDS011;31071;51.478;5.710;2023-03-02T06:52:03;59.03;;;27.30;;
45338;SDS011;31071;51.478;5.710;2023-03-02T06:54:31;63.33;;;28.08;;
45338;SDS011;31071;51.478;5.710;2023-03-02T06:56:57;65.78;;;28.95;;
45338;SDS011;31071;51.478;5.710;2023-03-02T06:59:22;66.60;;;28.50;;
45338;SDS011;31071;51.478;5.710;2023-03-02T07:01:48;63.08;;;30.02;;
45338;SDS011;31071;51.478;5.710;2023-03-02T07:04:16;60.65;;;27.77;;
45338;SDS011;31071;51.478;5.710;2023-03-02T07:06:42;61.08;;;27.48;;
45338;SDS011;31071;51.478;5.710;2023-03-02T07:09:08;64.53;;;27.30;;
45338;SDS011;31071;51.478;5.710;2023-03-02T07:11:33;65.43;;;27.30;;
45338;SDS011;31071;51.478;5.710;2023-03-02T07:13:59;63.08;;;27.73;;
45338;SDS011;31071;51.478;5.710;2023-03-02T07:16:25;66.30;;;29.45;;
45338;SDS011;31071;51.478;5.710;2023-03-02T07:29:13;56.90;;;27.17;;
45338;SDS011;31071;51.478;5.710;2023-03-02T07:31:39;56.90;;;27.55;;
45338;SDS011;31071;51.478;5.710;2023-03-02T07:34:07;55.67;;;26.90;;
45338;SDS011;31071;51.478;5.710;2023-03-02T07:36:33;64.30;;;28.65;;
45338;SDS011;31071;51.478;5.710;2023-03-02T07:38:58;61.13;;;27.25;;
45338;SDS011;31071;51.478;5.710;2023-03-02T07:41:27;53.20;;;26.27;;
45338;SDS011;31071;51.478;5.710;2023-03-02T07:43:52;55.90;;;26.05;;
45338;SDS011;31071;51.478;5.710;2023-03-02T07:46:21;56.10;;;26.77;;
45338;SDS011;31071;51.478;5.710;2023-03-02T07:48:53;50.63;;;25.35;;
45338;SDS011;31071;51.478;5.710;2023-03-02T07:53:54;57.65;;;26.92;;
45338;SDS011;31071;51.478;5.710;2023-03-02T07:56:20;51.40;;;26.95;;
45338;SDS011;31071;51.478;5.710;2023-03-02T08:06:24;50.97;;;26.08;;
45338;SDS011;31071;51.478;5.710;2023-03-02T08:08:50;50.67;;;25.20;;
45338;SDS011;31071;51.478;5.710;2023-03-02T08:11:16;44.17;;;23.05;;
45338;SDS011;31071;51.478;5.710;2023-03-02T08:13:54;46.13;;;24.30;;
45338;SDS011;31071;51.478;5.710;2023-03-02T08:16:19;49.03;;;25.05;;
45338;SDS011;31071;51.478;5.710;2023-03-02T08:18:51;48.67;;;23.88;;
45338;SDS011;31071;51.478;5.710;2023-03-02T08:21:18;52.65;;;25.30;;
45338;SDS011;31071;51.478;5.710;2023-03-02T08:23:45;43.90;;;22.58;;
45338;SDS011;31071;51.478;5.710;2023-03-02T08:26:11;45.75;;;23.60;;
45338;SDS011;31071;51.478;5.710;2023-03-02T08:28:38;47.22;;;22.23;;
45338;SDS011;31071;51.478;5.710;2023-03-02T08:31:04;45.05;;;23.25;;
45338;SDS011;31071;51.478;5.710;2023-03-02T08:33:30;40.13;;;21.55;;
45338;SDS011;31071;51.478;5.710;2023-03-02T08:35:57;46.83;;;24.40;;
45338;SDS011;31071;51.478;5.710;2023-03-02T08:38:35;40.42;;;21.25;;
45338;SDS011;31071;51.478;5.710;2023-03-02T08:41:02;43.38;;;23.55;;
45338;SDS011;31071;51.478;5.710;2023-03-02T08:43:30;39.65;;;21.08;;
45338;SDS011;31071;51.478;5.710;2023-03-02T08:45:56;43.88;;;22.60;;
45338;SDS011;31071;51.478;5.710;2023-03-02T08:48:22;42.30;;;22.50;;
45338;SDS011;31071;51.478;5.710;2023-03-02T08:50:55;35.75;;;19.90;;
45338;SDS011;31071;51.478;5.710;2023-03-02T08:53:26;34.15;;;20.48;;
45338;SDS011;31071;51.478;5.710;2023-03-02T08:55:55;38.85;;;20.83;;
45338;SDS011;31071;51.478;5.710;2023-03-02T08:58:20;35.72;;;21.05;;
45338;SDS011;31071;51.478;5.710;2023-03-02T09:00:46;32.63;;;19.40;;
45338;SDS011;31071;51.478;5.710;2023-03-02T09:03:12;33.72;;;21.45;;
45338;SDS011;31071;51.478;5.710;2023-03-02T09:05:37;34.80;;;20.17;;
45338;SDS011;31071;51.478;5.710;2023-03-02T09:08:03;33.65;;;20.83;;
45338;SDS011;31071;51.478;5.710;2023-03-02T09:10:29;32.05;;;19.27;;
45338;SDS011;31071;51.478;5.710;2023-03-02T09:12:56;33.38;;;19.80;;
45338;SDS011;31071;51.478;5.710;2023-03-02T09:15:27;29.30;;;19.92;;
45338;SDS011;31071;51.478;5.710;2023-03-02T09:17:53;29.15;;;19.17;;
45338;SDS011;31071;51.478;5.710;2023-03-02T09:20:19;29.33;;;19.42;;
45338;SDS011;31071;51.478;5.710;2023-03-02T09:22:45;28.30;;;19.10;;
45338;SDS011;31071;51.478;5.710;2023-03-02T09:25:15;27.92;;;18.63;;
45338;SDS011;31071;51.478;5.710;2023-03-02T09:27:42;25.75;;;17.20;;
45338;SDS011;31071;51.478;5.710;2023-03-02T09:30:08;25.30;;;17.42;;
45338;SDS011;31071;51.478;5.710;2023-03-02T09:32:36;28.65;;;18.80;;
45338;SDS011;31071;51.478;5.710;2023-03-02T09:35:02;24.05;;;16.25;;
45338;SDS011;31071;51.478;5.710;2023-03-02T09:37:28;24.38;;;17.35;;
45338;SDS011;31071;51.478;5.710;2023-03-02T09:39:54;25.02;;;17.05;;
45338;SDS011;31071;51.478;5.710;2023-03-02T09:51:06;23.70;;;16.30;;
45338;SDS011;31071;51.478;5.710;2023-03-02T09:53:47;22.38;;;15.45;;
45338;SDS011;31071;51.478;5.710;2023-03-02T09:56:22;23.20;;;15.48;;
45338;SDS011;31071;51.478;5.710;2023-03-02T09:58:55;23.85;;;15.95;;
45338;SDS011;31071;51.478;5.710;2023-03-02T10:01:31;22.42;;;16.02;;
45338;SDS011;31071;51.478;5.710;2023-03-02T10:04:13;22.52;;;15.57;;
45338;SDS011;31071;51.478;5.710;2023-03-02T10:07:13;23.33;;;15.63;;
45338;SDS011;31071;51.478;5.710;2023-03-02T10:12:53;21.30;;;15.10;;
45338;SDS011;31071;51.478;5.710;2023-03-02T10:18:19;21.98;;;16.50;;
45338;SDS011;31071;51.478;5.710;2023-03-02T10:23:35;21.17;;;15.77;;
45338;SDS011;31071;51.478;5.710;2023-03-02T10:26:25;22.10;;;16.17;;
45338;SDS011;31071;51.478;5.710;2023-03-02T10:31:52;22.75;;;16.42;;
45338;SDS011;31071;51.478;5.710;2023-03-02T10:34:38;22.50;;;16.23;;
45338;SDS011;31071;51.478;5.710;2023-03-02T10:37:15;21.25;;;16.02;;
45338;SDS011;31071;51.478;5.710;2023-03-02T10:39:43;19.50;;;15.48;;
45338;SDS011;31071;51.478;5.710;2023-03-02T10:42:13;20.73;;;16.15;;
45338;SDS011;31071;51.478;5.710;2023-03-02T10:45:07;21.65;;;15.63;;
45338;SDS011;31071;51.478;5.710;2023-03-02T10:47:43;20.33;;;14.80;;
45338;SDS011;31071;51.478;5.710;2023-03-02T10:50:22;19.90;;;15.70;;
45338;SDS011;31071;51.478;5.710;2023-03-02T10:52:48;19.38;;;14.60;;
45338;SDS011;31071;51.478;5.710;2023-03-02T10:55:14;18.40;;;14.60;;
45338;SDS011;31071;51.478;5.710;2023-03-02T10:57:41;19.73;;;14.23;;
45338;SDS011;31071;51.478;5.710;2023-03-02T11:05:25;17.55;;;14.25;;
45338;SDS011;31071;51.478;5.710;2023-03-02T11:07:58;17.75;;;13.52;;
45338;SDS011;31071;51.478;5.710;2023-03-02T11:12:54;20.80;;;14.82;;
45338;SDS011;31071;51.478;5.710;2023-03-02T11:15:24;18.48;;;14.10;;
45338;SDS011;31071;51.478;5.710;2023-03-02T11:17:52;17.13;;;14.23;;
45338;SDS011;31071;51.478;5.710;2023-03-02T11:20:28;18.92;;;15.13;;
45338;SDS011;31071;51.478;5.710;2023-03-02T11:25:33;18.17;;;14.82;;
45338;SDS011;31071;51.478;5.710;2023-03-02T11:28:04;20.83;;;14.98;;
45338;SDS011;31071;51.478;5.710;2023-03-02T11:30:41;19.25;;;13.88;;
45338;SDS011;31071;51.478;5.710;2023-03-02T11:33:14;17.65;;;13.55;;
45338;SDS011;31071;51.478;5.710;2023-03-02T11:36:08;20.92;;;15.13;;
45338;SDS011;31071;51.478;5.710;2023-03-02T11:38:45;16.27;;;13.10;;
45338;SDS011;31071;51.478;5.710;2023-03-02T11:43:53;20.42;;;14.82;;
45338;SDS011;31071;51.478;5.710;2023-03-02T11:46:25;20.00;;;15.27;;
45338;SDS011;31071;51.478;5.710;2023-03-02T11:48:57;21.60;;;14.73;;
45338;SDS011;31071;51.478;5.710;2023-03-02T11:51:28;19.15;;;15.38;;
45338;SDS011;31071;51.478;5.710;2023-03-02T11:54:02;18.27;;;15.75;;
45338;SDS011;31071;51.478;5.710;2023-03-02T11:56:35;17.95;;;14.77;;
45338;SDS011;31071;51.478;5.710;2023-03-02T11:59:05;20.25;;;15.45;;
45338;SDS011;31071;51.478;5.710;2023-03-02T12:01:35;17.38;;;14.90;;
45338;SDS011;31071;51.478;5.710;2023-03-02T12:04:24;17.90;;;14.43;;
45338;SDS011;31071;51.478;5.710;2023-03-02T12:06:53;21.17;;;15.52;;
45338;SDS011;31071;51.478;5.710;2023-03-02T12:11:55;17.60;;;14.00;;
45338;SDS011;31071;51.478;5.710;2023-03-02T12:14:37;17.52;;;14.45;;
45338;SDS011;31071;51.478;5.710;2023-03-02T12:17:05;17.27;;;14.07;;
45338;SDS011;31071;51.478;5.710;2023-03-02T12:19:43;18.63;;;14.25;;
45338;SDS011;31071;51.478;5.710;2023-03-02T12:22:09;18.13;;;14.52;;
45338;SDS011;31071;51.478;5.710;2023-03-02T12:24:39;17.40;;;13.88;;
45338;SDS011;31071;51.478;5.710;2023-03-02T12:29:44;16.27;;;13.88;;
45338;SDS011;31071;51.478;5.710;2023-03-02T12:34:59;16.30;;;13.35;;
45338;SDS011;31071;51.478;5.710;2023-03-02T12:48:23;19.63;;;13.55;;
45338;SDS011;31071;51.478;5.710;2023-03-02T12:50:48;15.93;;;13.38;;
45338;SDS011;31071;51.478;5.710;2023-03-02T12:53:18;16.10;;;13.82;;
45338;SDS011;31071;51.478;5.710;2023-03-02T12:55:44;16.42;;;13.45;;
45338;SDS011;31071;51.478;5.710;2023-03-02T12:58:15;18.20;;;13.80;;
45338;SDS011;31071;51.478;5.710;2023-03-02T13:00:48;17.80;;;14.18;;
45338;SDS011;31071;51.478;5.710;2023-03-02T13:03:18;17.33;;;13.52;;
45338;SDS011;31071;51.478;5.710;2023-03-02T13:05:45;18.95;;;14.20;;
45338;SDS011;31071;51.478;5.710;2023-03-02T13:10:52;18.70;;;13.07;;
45338;SDS011;31071;51.478;5.710;2023-03-02T13:13:25;16.88;;;11.95;;
45338;SDS011;31071;51.478;5.710;2023-03-02T13:16:01;15.98;;;12.30;;
45338;SDS011;31071;51.478;5.710;2023-03-02T13:18:33;15.85;;;12.27;;
45338;SDS011;31071;51.478;5.710;2023-03-02T13:21:03;13.68;;;11.05;;
45338;SDS011;31071;51.478;5.710;2023-03-02T13:23:31;14.57;;;11.77;;
45338;SDS011;31071;51.478;5.710;2023-03-02T13:25:58;13.32;;;11.48;;
45338;SDS011;31071;51.478;5.710;2023-03-02T13:28:26;17.40;;;12.98;;
45338;SDS011;31071;51.478;5.710;2023-03-02T13:30:55;15.27;;;11.95;;
45338;SDS011;31071;51.478;5.710;2023-03-02T13:33:24;18.42;;;12.98;;
45338;SDS011;31071;51.478;5.710;2023-03-02T13:35:51;15.15;;;12.85;;
45338;SDS011;31071;51.478;5.710;2023-03-02T13:38:17;17.10;;;12.07;;
45338;SDS011;31071;51.478;5.710;2023-03-02T13:40:47;15.07;;;11.75;;
45338;SDS011;31071;51.478;5.710;2023-03-02T13:43:28;16.00;;;12.02;;
45338;SDS011;31071;51.478;5.710;2023-03-02T13:45:59;12.90;;;11.50;;
45338;SDS011;31071;51.478;5.710;2023-03-02T13:48:30;17.65;;;12.13;;
45338;SDS011;31071;51.478;5.710;2023-03-02T13:51:13;14.70;;;12.43;;
45338;SDS011;31071;51.478;5.710;2023-03-02T13:53:41;16.65;;;13.38;;
45338;SDS011;31071;51.478;5.710;2023-03-02T13:56:14;13.85;;;11.48;;
45338;SDS011;31071;51.478;5.710;2023-03-02T13:58:42;15.60;;;12.68;;
45338;SDS011;31071;51.478;5.710;2023-03-02T14:01:09;16.08;;;12.80;;
45338;SDS011;31071;51.478;5.710;2023-03-02T14:03:36;14.45;;;12.23;;
45338;SDS011;31071;51.478;5.710;2023-03-02T14:06:03;15.23;;;11.98;;
45338;SDS011;31071;51.478;5.710;2023-03-02T14:08:30;14.98;;;12.15;;
45338;SDS011;31071;51.478;5.710;2023-03-02T14:10:56;16.02;;;12.38;;
45338;SDS011;31071;51.478;5.710;2023-03-02T14:13:29;16.20;;;12.57;;
45338;SDS011;31071;51.478;5.710;2023-03-02T14:16:01;16.65;;;11.48;;
45338;SDS011;31071;51.478;5.710;2023-03-02T14:20:53;14.10;;;11.73;;
45338;SDS011;31071;51.478;5.710;2023-03-02T14:23:41;15.63;;;11.75;;
45338;SDS011;31071;51.478;5.710;2023-03-02T14:26:32;16.27;;;12.55;;
45338;SDS011;31071;51.478;5.710;2023-03-02T14:28:59;15.73;;;11.57;;
45338;SDS011;31071;51.478;5.710;2023-03-02T14:31:28;14.15;;;10.27;;
45338;SDS011;31071;51.478;5.710;2023-03-02T14:33:54;16.55;;;11.55;;
45338;SDS011;31071;51.478;5.710;2023-03-02T14:36:26;14.52;;;11.20;;
45338;SDS011;31071;51.478;5.710;2023-03-02T14:38:55;14.57;;;11.57;;
45338;SDS011;31071;51.478;5.710;2023-03-02T14:41:23;14.20;;;10.70;;
45338;SDS011;31071;51.478;5.710;2023-03-02T14:43:50;13.93;;;10.75;;
45338;SDS011;31071;51.478;5.710;2023-03-02T14:46:16;14.48;;;10.88;;
45338;SDS011;31071;51.478;5.710;2023-03-02T14:48:41;16.33;;;10.68;;
45338;SDS011;31071;51.478;5.710;2023-03-02T14:51:14;16.48;;;10.32;;
45338;SDS011;31071;51.478;5.710;2023-03-02T14:53:48;14.77;;;11.10;;
45338;SDS011;31071;51.478;5.710;2023-03-02T14:56:17;14.60;;;10.30;;
45338;SDS011;31071;51.478;5.710;2023-03-02T14:58:44;14.70;;;10.50;;
45338;SDS011;31071;51.478;5.710;2023-03-02T15:01:10;16.92;;;11.73;;
45338;SDS011;31071;51.478;5.710;2023-03-02T15:03:39;15.73;;;10.73;;
45338;SDS011;31071;51.478;5.710;2023-03-02T15:06:05;14.23;;;10.40;;
45338;SDS011;31071;51.478;5.710;2023-03-02T15:08:51;15.10;;;10.32;;
45338;SDS011;31071;51.478;5.710;2023-03-02T15:11:17;14.35;;;10.85;;
45338;SDS011;31071;51.478;5.710;2023-03-02T15:13:46;14.90;;;10.48;;
45338;SDS011;31071;51.478;5.710;2023-03-02T15:16:12;15.23;;;10.32;;
45338;SDS011;31071;51.478;5.710;2023-03-02T15:18:40;15.77;;;9.82;;
45338;SDS011;31071;51.478;5.710;2023-03-02T15:21:06;15.60;;;10.55;;
45338;SDS011;31071;51.478;5.710;2023-03-02T15:23:38;15.35;;;10.60;;
45338;SDS011;31071;51.478;5.710;2023-03-02T15:26:08;13.93;;;10.20;;
45338;SDS011;31071;51.478;5.710;2023-03-02T15:28:35;16.95;;;10.68;;
45338;SDS011;31071;51.478;5.710;2023-03-02T15:31:07;15.52;;;10.35;;
45338;SDS011;31071;51.478;5.710;2023-03-02T15:33:35;14.68;;;10.27;;
45338;SDS011;31071;51.478;5.710;2023-03-02T15:36:01;16.33;;;10.18;;
45338;SDS011;31071;51.478;5.710;2023-03-02T15:38:30;14.70;;;9.82;;
45338;SDS011;31071;51.478;5.710;2023-03-02T15:40:56;18.33;;;10.32;;
45338;SDS011;31071;51.478;5.710;2023-03-02T15:43:21;13.75;;;9.60;;
45338;SDS011;31071;51.478;5.710;2023-03-02T15:45:48;15.45;;;9.73;;
45338;SDS011;31071;51.478;5.710;2023-03-02T15:48:14;13.75;;;9.52;;
45338;SDS011;31071;51.478;5.710;2023-03-02T15:50:40;15.02;;;9.68;;
45338;SDS011;31071;51.478;5.710;2023-03-02T15:53:10;15.65;;;9.90;;
45338;SDS011;31071;51.478;5.710;2023-03-02T15:55:38;17.77;;;10.70;;